Etusivu
METAR-TAF:

METAR-TAF

Lentoasemat :

Lappeenranta, Suomi

Lappeenrannan lentoasema

Leveyspiiri: 61-02-45N, Pituuspiiri: 028-08-55E, korkeus merenpinnasta: 106 m

Tämänhetkinen sää

Tämä raportti tehtiin 20 minuuttia sitten, kello 09.50 UTC
Tuuli 6 kn idästä/kaakosta, vaihdellen koillisen ja etelän välillä
Lämpötila 15°C
Kosteus 67%
Ilmanpaine 1037 hPa
Näkyvyys 10 km tai enemmän
ei pilviä alle 1500 m:ssä eikä cumulonimbus-pilviä

METAR: EFLP 240950Z AUTO 12006KT 050V190 CAVOK 15/09 Q1037

Aika: 13:10 (10:10 UTC)


TAF: puuttuu

Säähavainnot ja -ennusteet yli 4000 lentoasemalta (METAR- ja TAF-raportit).

Käytössä olevat sääasemat on merkitty karttaan keltaisilla ja punaisilla pisteillä.

Aseta hiiri pisteen päälle nähdäksesi sääaseman nimen.

Klikkaa sitten nähdäksesi säähavainnot ja -ennusteet.

Kartan vaihtaminen: klikkaa mustalla rastilla varustettuja vihreitä pisteitä, niin voit zoomata sisään; viivalla varustettua vihreää pistettä, niin voit zoomata ulos tai vihreitä nuolia, niin pääset viereisille kartoille.


METAR-TAF: